Time;durP1;ratioP1;P1;durP2;ratioP2;P2;SDS_P1;SDS_P2;PMS_P1;PMS_P2;Temp;Humidity;BMP_temperature;BMP_pressure;BME280_temperature;BME280_humidity;BME280_pressure;Samples;Min_cycle;Max_cycle;Signal;HPM_P1;HPM_P2
2022/04/16 00:02:12;;;;;;;8.38;7.50;;;;;;;14.29;64.94;98981.27;1733932;82;21045;-65
2022/04/16 00:04:42;;;;;;;8.78;7.30;;;;;;;14.29;64.84;98975.38;1725373;82;21117;-65
2022/04/16 00:07:07;;;;;;;8.98;7.40;;;;;;;14.29;64.75;98979.39;1718166;81;21758;-64
2022/04/16 00:09:35;;;;;;;6.92;6.28;;;;;;;14.28;64.73;98980.44;1724998;81;20851;-64
2022/04/16 00:12:03;;;;;;;6.53;5.92;;;;;;;14.28;64.73;98982.28;1733393;81;21061;-64
2022/04/16 00:14:31;;;;;;;6.58;5.97;;;;;;;14.27;64.74;98978.77;1727945;81;20943;-66
2022/04/16 00:16:59;;;;;;;7.17;5.62;;;;;;;14.28;64.71;98979.61;1720858;81;21080;-64
2022/04/16 00:19:27;;;;;;;6.12;5.53;;;;;;;14.26;64.69;98980.33;1722922;81;21004;-64
2022/04/16 00:21:53;;;;;;;6.95;6.35;;;;;;;14.23;64.71;98978.35;1730063;81;21006;-65
2022/04/16 00:24:20;;;;;;;7.10;6.40;;;;;;;14.21;64.72;98976.91;1720832;81;21142;-65
2022/04/16 00:26:50;;;;;;;6.17;5.62;;;;;;;14.17;64.68;98977.03;1720761;82;21666;-65
2022/04/16 00:29:16;;;;;;;6.58;5.95;;;;;;;14.14;64.78;98969.41;1722793;82;20944;-66
2022/04/16 00:31:45;;;;;;;7.00;6.40;;;;;;;14.14;64.85;98981.44;1743192;81;22029;-66
2022/04/16 00:34:14;;;;;;;7.58;6.78;;;;;;;14.10;64.99;98973.53;1723944;81;21548;-65
2022/04/16 00:36:44;;;;;;;7.47;6.72;;;;;;;14.10;65.13;98983.69;1735143;81;21574;-64
2022/04/16 00:39:12;;;;;;;8.45;7.55;;;;;;;14.10;65.18;98981.56;1723689;81;21045;-65
2022/04/16 00:41:39;;;;;;;8.45;7.65;;;;;;;14.07;65.34;98977.95;1716221;81;21631;-65
2022/04/16 00:44:06;;;;;;;8.58;7.75;;;;;;;14.07;65.47;98980.12;1672355;83;21984;-65
2022/04/16 00:46:34;;;;;;;8.85;8.03;;;;;;;14.06;65.59;98982.47;1721185;81;21317;-65
2022/04/16 00:49:00;;;;;;;9.38;8.45;;;;;;;14.07;65.70;98984.64;1726416;81;21042;-65
2022/04/16 00:51:29;;;;;;;9.28;8.28;;;;;;;14.10;65.63;98983.69;1721382;81;21069;-65
2022/04/16 00:53:56;;;;;;;10.63;9.55;;;;;;;14.10;65.65;98982.89;1724468;81;21062;-64
2022/04/16 00:56:23;;;;;;;11.10;9.55;;;;;;;14.10;65.69;98983.69;1685349;83;22212;-64
2022/04/16 00:58:49;;;;;;;9.73;8.28;;;;;;;14.10;65.69;98978.88;1720247;81;20998;-64
2022/04/16 01:01:16;;;;;;;10.10;8.25;;;;;;;14.09;65.77;98980.73;1725706;81;21018;-65
2022/04/16 01:03:45;;;;;;;11.35;9.08;;;;;;;14.08;65.82;98980.91;1719253;81;21074;-65
2022/04/16 01:06:15;;;;;;;10.63;9.53;;;;;;;14.05;65.87;98980.81;1725844;81;20955;-65
2022/04/16 01:08:44;;;;;;;10.30;8.58;;;;;;;14.03;65.95;98984.21;1726708;81;21588;-66
2022/04/16 01:11:13;;;;;;;10.48;9.05;;;;;;;14.00;66.00;98980.60;1723132;81;21014;-65
2022/04/16 01:13:41;;;;;;;12.15;9.55;;;;;;;13.98;66.08;98985.84;1718393;81;21077;-64
2022/04/16 01:16:09;;;;;;;10.48;8.98;;;;;;;13.94;66.18;98984.63;1715551;81;21590;-65
2022/04/16 01:18:35;;;;;;;9.33;8.35;;;;;;;13.91;66.28;98984.52;1720478;81;20997;-65
2022/04/16 01:21:07;;;;;;;10.55;8.93;;;;;;;13.91;66.32;98982.34;1701478;83;21641;-64
2022/04/16 01:23:32;;;;;;;10.40;9.30;;;;;;;13.92;66.31;98977.32;1720662;81;21527;-64
2022/04/16 01:26:01;;;;;;;9.73;8.30;;;;;;;13.90;66.27;98978.02;1720171;81;21036;-65
2022/04/16 01:28:29;;;;;;;12.13;8.75;;;;;;;13.89;66.14;98980.39;1697937;81;22146;-65
2022/04/16 01:30:57;;;;;;;12.18;9.58;;;;;;;13.86;66.08;98983.47;1723530;81;20982;-66
2022/04/16 01:33:23;;;;;;;13.60;10.65;;;;;;;13.81;66.09;98973.90;1702968;81;22165;-65
2022/04/16 01:35:51;;;;;;;13.53;10.65;;;;;;;13.79;66.16;98985.31;1720453;81;21034;-65
2022/04/16 01:38:18;;;;;;;11.80;9.70;;;;;;;13.78;66.27;98986.33;1720618;81;21575;-65
2022/04/16 01:40:45;;;;;;;9.70;8.70;;;;;;;13.76;66.36;98982.53;1722868;82;20971;-65
2022/04/16 01:43:11;;;;;;;8.85;7.92;;;;;;;13.74;66.51;98982.43;1720904;81;21057;-65
2022/04/16 01:45:38;;;;;;;8.63;7.83;;;;;;;13.73;66.69;98984.27;1723828;81;21157;-65
2022/04/16 01:48:06;;;;;;;8.05;7.35;;;;;;;13.72;66.89;98986.63;1720460;81;20947;-66
2022/04/16 01:50:33;;;;;;;8.00;7.20;;;;;;;13.71;67.09;98980.98;1723271;82;21049;-65
2022/04/16 01:53:02;;;;;;;8.65;7.80;;;;;;;13.73;67.12;98984.78;1721723;82;20942;-65
2022/04/16 01:55:29;;;;;;;8.60;7.55;;;;;;;13.73;67.13;98980.27;1750360;81;20930;-65
2022/04/16 01:57:56;;;;;;;8.93;7.35;;;;;;;13.73;67.24;98982.11;1719968;81;21458;-65
2022/04/16 02:00:25;;;;;;;8.05;7.00;;;;;;;13.74;67.25;98981.89;1745050;81;20993;-64
2022/04/16 02:02:52;;;;;;;8.28;7.22;;;;;;;13.74;67.21;98977.88;1724860;81;21371;-65
2022/04/16 02:05:19;;;;;;;7.92;7.10;;;;;;;13.73;67.13;98979.43;1740645;81;21025;-64
2022/04/16 02:07:47;;;;;;;7.15;6.45;;;;;;;13.73;66.94;98975.42;1721168;81;21250;-64
2022/04/16 02:10:16;;;;;;;6.72;5.65;;;;;;;13.72;66.79;98977.27;1711468;82;21034;-65
2022/04/16 02:12:44;;;;;;;6.08;5.42;;;;;;;13.70;66.63;98982.00;1675266;83;21024;-65
2022/04/16 02:15:12;;;;;;;5.50;4.90;;;;;;;13.68;66.48;98980.55;1711146;83;21501;-65
2022/04/16 02:17:38;;;;;;;6.17;5.30;;;;;;;13.68;66.34;98983.23;1718248;82;20943;-65
2022/04/16 02:20:07;;;;;;;5.20;4.70;;;;;;;13.68;66.10;98987.23;1703404;83;21061;-65
2022/04/16 02:22:42;;;;;;;5.10;4.60;;;;;;;13.63;66.01;98991.32;1666962;83;21030;-65
2022/04/16 02:25:11;;;;;;;4.22;3.83;;;;;;;13.60;65.84;98994.93;1670989;84;21003;-65
2022/04/16 02:27:40;;;;;;;4.25;3.83;;;;;;;13.57;65.78;98993.98;1704155;82;21439;-64
2022/04/16 02:30:12;;;;;;;3.50;3.20;;;;;;;13.53;65.78;98991.42;1702281;83;21057;-65
2022/04/16 02:32:41;;;;;;;3.00;2.80;;;;;;;13.54;65.74;98991.71;1700629;83;21026;-66
2022/04/16 02:35:08;;;;;;;2.87;2.47;;;;;;;13.55;65.70;98990.70;1697662;83;22673;-65
2022/04/16 02:37:35;;;;;;;2.85;2.65;;;;;;;13.57;65.62;98987.30;1717571;82;21573;-65
2022/04/16 02:40:05;;;;;;;4.55;4.15;;;;;;;13.55;65.44;98987.52;1715333;82;20982;-65
2022/04/16 02:42:36;;;;;;;7.20;4.67;;;;;;;13.52;65.41;98983.91;1714354;82;21066;-65
2022/04/16 02:47:49;;;;;;;4.92;4.42;;;;;;;13.47;65.38;98989.03;1739311;82;21238;-65
2022/04/16 02:50:16;;;;;;;6.45;5.80;;;;;;;13.44;65.46;98987.27;1727740;82;21057;-65
2022/04/16 02:52:44;;;;;;;5.28;4.87;;;;;;;13.40;65.45;98989.50;1713738;82;21548;-65
2022/04/16 02:55:11;;;;;;;4.78;4.37;;;;;;;13.38;65.48;98996.89;1713929;82;20999;-64
2022/04/16 02:57:38;;;;;;;6.42;4.92;;;;;;;13.37;65.49;98991.77;1737462;82;20999;-65
2022/04/16 03:00:07;;;;;;;6.47;5.87;;;;;;;13.35;65.53;98994.62;1739844;82;21170;-65
2022/04/16 03:02:34;;;;;;;5.92;5.42;;;;;;;13.32;65.53;98997.69;1714388;82;21072;-64
2022/04/16 03:05:00;;;;;;;6.15;5.20;;;;;;;13.28;65.53;98998.29;1714673;82;20946;-63
2022/04/16 03:07:27;;;;;;;5.30;4.80;;;;;;;13.25;65.56;99001.35;1736833;82;21010;-64
2022/04/16 03:09:55;;;;;;;4.67;4.28;;;;;;;13.43;65.28;98990.95;1737972;82;21314;-64
2022/04/16 03:12:21;;;;;;;4.37;3.98;;;;;;;13.22;65.46;98993.77;1737756;81;21214;-65
2022/04/16 03:17:36;;;;;;;2.50;2.30;;;;;;;13.14;65.55;98992.05;1717410;82;20895;-65
2022/04/16 03:20:06;;;;;;;2.58;2.37;;;;;;;13.06;65.60;98996.73;1715829;82;21082;-66
2022/04/16 03:22:34;;;;;;;2.90;2.67;;;;;;;13.05;65.53;98997.23;1714671;82;20944;-65
2022/04/16 03:25:07;;;;;;;2.37;1.77;;;;;;;13.01;65.69;98997.30;1705024;82;21259;-65
2022/04/16 03:27:37;;;;;;;2.40;2.02;;;;;;;13.04;65.61;98994.23;1713415;82;21010;-64
2022/04/16 03:30:05;;;;;;;3.52;1.85;;;;;;;13.03;65.61;99005.13;1717924;82;21574;-65
2022/04/16 03:32:40;;;;;;;1.85;1.75;;;;;;;13.06;65.60;99000.73;1746037;82;20899;-64
2022/04/16 03:35:09;;;;;;;2.50;2.12;;;;;;;13.06;65.60;99004.23;1694814;83;21048;-66
2022/04/16 03:37:37;;;;;;;2.22;2.12;;;;;;;13.04;65.63;99010.26;1728325;81;21006;-65
2022/04/16 03:40:05;;;;;;;2.45;2.27;;;;;;;13.02;65.63;99012.30;1723602;81;20945;-65
2022/04/16 03:42:32;;;;;;;1.98;1.77;;;;;;;13.00;65.70;99009.02;1726136;81;21147;-64
2022/04/16 03:45:00;;;;;;;1.82;1.72;;;;;;;13.00;65.76;99011.69;1720817;81;21015;-64
2022/04/16 03:47:28;;;;;;;1.90;1.80;;;;;;;13.00;65.77;99007.68;1733419;81;21620;-65
2022/04/16 03:49:56;;;;;;;2.00;1.80;;;;;;;12.99;65.76;99017.53;1719308;81;21050;-64
2022/04/16 03:52:22;;;;;;;2.40;2.12;;;;;;;12.97;65.90;99018.75;1723389;81;21582;-64
2022/04/16 04:00:19;;;;;;;1.82;1.72;;;;;;;12.90;67.03;99035.25;1738785;81;21048;-65
2022/04/16 04:02:47;;;;;;;1.82;1.72;;;;;;;12.90;67.06;99035.25;1725851;81;21294;-64
2022/04/16 04:05:13;;;;;;;1.50;1.40;;;;;;;12.94;66.87;99035.16;1720956;82;21046;-64
2022/04/16 04:07:40;;;;;;;1.00;1.00;;;;;;;12.88;66.98;99036.76;1713636;81;21053;-64
2022/04/16 04:10:10;;;;;;;1.27;1.17;;;;;;;12.87;67.39;99034.30;1717025;81;21289;-64
2022/04/16 04:12:38;;;;;;;1.12;1.05;;;;;;;12.87;66.96;99037.80;1724263;81;21089;-64
2022/04/16 04:15:06;;;;;;;1.30;1.20;;;;;;;12.87;66.87;99039.64;1751078;81;21797;-64
2022/04/16 04:17:34;;;;;;;1.17;1.00;;;;;;;12.82;66.85;99036.73;1751053;81;21048;-64
2022/04/16 04:20:00;;;;;;;1.02;1.02;;;;;;;12.80;67.08;99038.78;1730996;81;21006;-64
2022/04/16 04:22:28;;;;;;;1.17;1.05;;;;;;;12.80;67.01;99043.58;1717894;81;21327;-64
2022/04/16 04:24:55;;;;;;;1.98;0.98;;;;;;;12.81;68.21;99045.24;1722934;82;21571;-65
2022/04/16 04:27:23;;;;;;;0.60;0.60;;;;;;;12.80;68.24;99039.58;1717136;81;21146;-64
2022/04/16 04:29:50;;;;;;;0.42;0.42;;;;;;;12.82;67.72;99047.41;1726314;81;21053;-64
2022/04/16 04:32:16;;;;;;;0.37;0.37;;;;;;;12.79;67.60;99046.45;1720358;81;21070;-65
2022/04/16 04:34:44;;;;;;;0.70;0.47;;;;;;;12.69;67.69;99048.14;1740386;81;21076;-65
2022/04/16 04:37:11;;;;;;;0.50;0.50;;;;;;;12.62;67.79;99057.92;1732679;81;21041;-64
2022/04/16 04:39:37;;;;;;;0.30;0.30;;;;;;;12.58;67.77;99061.17;1736121;81;21077;-65
2022/04/16 04:42:04;;;;;;;0.40;0.40;;;;;;;12.50;67.93;99063.47;1722214;81;21070;-65
2022/04/16 04:44:31;;;;;;;0.37;0.37;;;;;;;12.44;68.04;99062.90;1717303;81;21607;-66
2022/04/16 04:46:58;;;;;;;0.57;0.37;;;;;;;12.37;67.94;99061.52;1719511;81;21136;-65
2022/04/16 04:49:25;;;;;;;0.37;0.37;;;;;;;12.31;68.07;99068.11;1733544;82;20890;-64
2022/04/16 04:51:52;;;;;;;0.30;0.30;;;;;;;12.29;68.41;99070.98;1744257;81;22181;-63
2022/04/16 04:54:19;;;;;;;0.75;0.75;;;;;;;12.31;68.52;99076.95;1723207;81;20947;-65
2022/04/16 04:56:47;;;;;;;0.50;0.50;;;;;;;12.27;69.10;99073.02;1729492;81;21579;-65
2022/04/16 04:59:13;;;;;;;0.70;0.50;;;;;;;12.28;68.97;99067.98;1730501;81;21077;-64
2022/04/16 05:01:41;;;;;;;0.30;0.30;;;;;;;12.21;69.04;99071.61;1733565;81;21129;-64
2022/04/16 05:04:07;;;;;;;0.23;0.20;;;;;;;12.10;69.04;99067.61;1720646;81;21281;-65
2022/04/16 05:06:35;;;;;;;0.10;0.10;;;;;;;12.01;69.18;99078.59;1724970;81;21045;-65
2022/04/16 05:09:03;;;;;;;0.20;0.20;;;;;;;11.95;69.36;99070.00;1728027;81;21005;-65
2022/04/16 05:11:30;;;;;;;0.37;0.37;;;;;;;11.91;69.26;99077.58;1723805;81;21062;-65
2022/04/16 05:13:58;;;;;;;0.30;0.30;;;;;;;11.87;69.43;99078.94;1720748;82;21026;-64
2022/04/16 05:16:25;;;;;;;0.30;0.30;;;;;;;11.80;69.23;99085.22;1723425;82;21839;-63
2022/04/16 05:18:51;;;;;;;0.23;0.20;;;;;;;11.75;69.20;99081.79;1724000;81;20998;-65
2022/04/16 05:21:18;;;;;;;0.68;0.50;;;;;;;11.65;68.98;99078.56;1713145;81;21011;-65
2022/04/16 05:23:45;;;;;;;0.85;0.30;;;;;;;11.55;68.93;99080.16;1681153;83;21114;-66
2022/04/16 05:26:13;;;;;;;0.82;0.47;;;;;;;11.49;68.84;99074.77;1700265;82;21010;-64
2022/04/16 05:28:41;;;;;;;0.78;0.40;;;;;;;11.41;68.77;99085.52;1712900;83;21224;-64
2022/04/16 05:31:07;;;;;;;1.10;0.57;;;;;;;11.23;69.11;99081.08;1708851;83;21064;-66
2022/04/16 05:36:21;;;;;;;1.85;0.50;;;;;;;11.07;69.45;99091.41;1709813;83;21097;-64
2022/04/16 05:38:47;;;;;;;0.60;0.60;;;;;;;10.98;69.48;99095.97;1695621;83;21046;-64
2022/04/16 05:41:13;;;;;;;0.80;0.60;;;;;;;10.93;69.42;99110.83;1704636;82;22179;-65
2022/04/16 05:43:40;;;;;;;0.50;0.50;;;;;;;10.89;69.17;99106.39;1720742;82;21245;-65
2022/04/16 05:46:08;;;;;;;1.57;0.72;;;;;;;10.83;68.90;99113.76;1711866;82;21028;-65
2022/04/16 05:48:34;;;;;;;0.80;0.80;;;;;;;10.80;68.85;99119.44;1720035;82;21567;-64
2022/04/16 05:51:01;;;;;;;1.10;0.50;;;;;;;10.80;68.75;99118.60;1749903;82;21614;-65
2022/04/16 05:53:31;;;;;;;0.82;0.82;;;;;;;10.71;68.93;99122.36;1737599;82;21281;-65
2022/04/16 05:55:59;;;;;;;0.70;0.70;;;;;;;10.61;69.09;99118.59;1710763;82;21045;-64
2022/04/16 05:58:25;;;;;;;2.27;0.65;;;;;;;10.54;69.39;99140.27;1713037;82;21002;-64
2022/04/16 06:00:54;;;;;;;0.53;0.53;;;;;;;10.57;69.27;99149.23;1723424;82;21087;-66
2022/04/16 06:03:21;;;;;;;0.50;0.50;;;;;;;10.56;69.10;99142.24;1717313;82;21113;-64
2022/04/16 06:05:52;;;;;;;0.40;0.40;;;;;;;10.59;68.73;99146.38;1722121;82;21005;-64
2022/04/16 06:08:18;;;;;;;0.70;0.60;;;;;;;10.66;68.23;99140.69;1721515;82;20945;-63
2022/04/16 06:10:46;;;;;;;0.25;0.25;;;;;;;10.70;67.67;99141.48;1716896;82;21054;-63
2022/04/16 06:13:13;;;;;;;0.98;0.50;;;;;;;10.76;67.15;99143.44;1710690;82;21556;-65
2022/04/16 06:15:41;;;;;;;0.82;0.53;;;;;;;10.82;66.61;99145.88;1714817;82;20966;-65
2022/04/16 06:18:09;;;;;;;0.40;0.40;;;;;;;10.79;66.41;99152.89;1701938;82;21255;-65
2022/04/16 06:20:37;;;;;;;0.35;0.35;;;;;;;10.80;65.94;99162.50;1715440;82;21042;-65
2022/04/16 06:23:05;;;;;;;0.40;0.40;;;;;;;10.77;65.75;99154.37;1720502;82;20890;-64
2022/04/16 06:25:32;;;;;;;0.50;0.50;;;;;;;10.71;65.74;99170.25;1721541;82;21131;-65
2022/04/16 06:27:59;;;;;;;0.68;0.53;;;;;;;10.64;65.88;99171.45;1716956;82;22158;-63
2022/04/16 06:30:27;;;;;;;0.70;0.70;;;;;;;10.60;66.02;99183.95;1716242;82;21156;-65
2022/04/16 06:32:54;;;;;;;1.10;1.02;;;;;;;10.51;66.04;99184.02;1719227;82;21618;-63
2022/04/16 06:35:22;;;;;;;0.95;0.95;;;;;;;10.40;66.24;99187.59;1712217;82;21563;-64
2022/04/16 06:37:49;;;;;;;0.70;0.70;;;;;;;10.34;66.39;99183.80;1733266;82;21057;-64
2022/04/16 06:40:15;;;;;;;1.00;0.90;;;;;;;10.31;66.37;99184.65;1729791;82;21075;-65
2022/04/16 06:42:42;;;;;;;1.30;0.80;;;;;;;10.27;66.26;99191.33;1712435;82;22144;-65
2022/04/16 06:45:10;;;;;;;1.27;0.70;;;;;;;10.21;66.34;99196.01;1708864;83;20995;-65
2022/04/16 06:47:37;;;;;;;1.15;1.00;;;;;;;10.16;66.34;99198.36;1706121;84;21156;-65
2022/04/16 06:50:05;;;;;;;0.88;0.70;;;;;;;10.12;66.35;99207.17;1707018;82;20962;-65
2022/04/16 06:52:32;;;;;;;1.00;0.80;;;;;;;10.14;66.32;99221.11;1705824;82;21073;-66
2022/04/16 06:54:59;;;;;;;1.67;1.40;;;;;;;10.14;66.35;99221.64;1704488;83;21757;-64
2022/04/16 06:57:26;;;;;;;0.80;0.80;;;;;;;10.11;66.49;99219.30;1704664;83;20967;-65
2022/04/16 06:59:53;;;;;;;1.00;1.00;;;;;;;10.07;66.55;99224.61;1702371;82;21087;-65
2022/04/16 07:02:19;;;;;;;1.27;0.85;;;;;;;10.00;66.61;99236.45;1703360;82;20943;-64
2022/04/16 07:04:46;;;;;;;0.68;0.68;;;;;;;9.95;66.70;99234.81;1706052;82;20939;-64
2022/04/16 07:07:13;;;;;;;0.72;0.72;;;;;;;9.90;66.82;99240.64;1710517;82;21737;-63
2022/04/16 07:09:39;;;;;;;1.17;1.10;;;;;;;9.88;66.81;99236.50;1675576;83;20986;-66
2022/04/16 07:12:13;;;;;;;1.35;0.90;;;;;;;9.85;66.76;99237.64;1706127;83;21469;-67
2022/04/16 07:14:38;;;;;;;0.55;0.55;;;;;;;9.77;66.87;99243.02;1704466;82;20907;-63
2022/04/16 07:17:07;;;;;;;0.65;0.65;;;;;;;9.73;67.03;99251.47;1705325;83;21019;-63
2022/04/16 07:19:34;;;;;;;0.75;0.70;;;;;;;9.78;66.75;99256.61;1672657;84;21274;-65
2022/04/16 07:22:01;;;;;;;0.62;0.62;;;;;;;10.01;65.91;99253.23;1704929;82;21001;-63
2022/04/16 07:24:27;;;;;;;0.90;0.90;;;;;;;10.37;64.55;99251.77;1706815;82;21421;-66
2022/04/16 07:26:54;;;;;;;0.90;0.90;;;;;;;10.39;64.05;99255.91;1728515;82;21003;-64
2022/04/16 07:29:22;;;;;;;1.02;0.85;;;;;;;9.90;65.20;99251.27;1722228;82;21010;-64
2022/04/16 07:31:49;;;;;;;0.78;0.78;;;;;;;10.06;66.07;99269.48;1709164;82;21104;-64
2022/04/16 07:34:16;;;;;;;1.00;1.00;;;;;;;9.84;66.29;99265.23;1716661;83;20940;-65
2022/04/16 07:36:44;;;;;;;0.93;0.93;;;;;;;9.86;65.71;99271.20;1703861;82;20954;-65
2022/04/16 07:39:11;;;;;;;1.00;1.00;;;;;;;10.20;64.87;99276.75;1715424;82;21086;-64
2022/04/16 07:41:38;;;;;;;1.05;0.75;;;;;;;10.34;64.16;99273.38;1711571;82;20970;-63
2022/04/16 07:44:05;;;;;;;0.82;0.60;;;;;;;9.82;65.43;99284.51;1717432;82;21253;-64
2022/04/16 07:46:35;;;;;;;0.80;0.80;;;;;;;9.98;65.35;99285.45;1715602;82;21059;-66
2022/04/16 07:49:04;;;;;;;0.90;0.90;;;;;;;9.67;65.76;99286.18;1670083;83;21007;-66
2022/04/16 07:51:31;;;;;;;0.78;0.78;;;;;;;9.65;65.83;99294.82;1715716;83;20924;-65
2022/04/16 07:53:58;;;;;;;1.55;0.90;;;;;;;9.65;65.83;99297.97;1719677;82;21029;-67
2022/04/16 07:56:24;;;;;;;1.75;1.20;;;;;;;9.62;67.27;99298.33;1718944;82;21255;-65
2022/04/16 07:58:54;;;;;;;3.35;1.52;;;;;;;9.57;68.38;99306.78;1715846;82;20967;-65
2022/04/16 08:01:21;;;;;;;3.65;3.35;;;;;;;9.52;70.70;99309.61;1717252;83;20973;-65
2022/04/16 08:03:48;;;;;;;3.08;2.77;;;;;;;9.50;70.43;99310.28;1715943;82;20958;-64
2022/04/16 08:06:14;;;;;;;3.20;2.77;;;;;;;9.85;69.46;99308.58;1718521;83;20937;-64
2022/04/16 08:08:42;;;;;;;4.47;3.60;;;;;;;9.68;68.78;99310.42;1715957;82;21161;-66
2022/04/16 08:11:10;;;;;;;4.12;3.65;;;;;;;9.61;68.22;99316.09;1713703;83;21550;-66
2022/04/16 08:13:38;;;;;;;5.20;4.60;;;;;;;9.60;67.73;99327.70;1715929;83;20939;-64
2022/04/16 08:16:06;;;;;;;4.85;3.83;;;;;;;9.56;67.46;99334.36;1718075;82;21465;-66
2022/04/16 08:18:33;;;;;;;2.77;2.40;;;;;;;9.54;67.19;99323.05;1722509;83;21426;-64
2022/04/16 08:21:00;;;;;;;3.65;3.35;;;;;;;9.45;66.42;99328.54;1718105;83;22224;-66
2022/04/16 08:23:26;;;;;;;2.65;2.45;;;;;;;9.33;66.13;99329.39;1711844;83;20926;-65
2022/04/16 08:25:55;;;;;;;1.87;1.77;;;;;;;9.31;65.63;99330.86;1719261;82;20927;-65
2022/04/16 08:28:23;;;;;;;2.20;1.92;;;;;;;9.23;65.31;99339.31;1718656;83;20943;-64
2022/04/16 08:30:50;;;;;;;2.85;2.55;;;;;;;9.16;64.91;99344.95;1722343;82;20998;-64
2022/04/16 08:33:17;;;;;;;2.45;2.25;;;;;;;9.18;64.43;99350.92;1717980;83;21773;-64
2022/04/16 08:35:46;;;;;;;2.45;1.80;;;;;;;9.21;64.07;99353.25;1711084;83;21049;-64
2022/04/16 08:38:14;;;;;;;2.40;2.20;;;;;;;9.24;63.61;99354.25;1696131;83;21639;-64
2022/04/16 08:40:40;;;;;;;2.15;2.05;;;;;;;9.24;62.80;99348.95;1713729;83;21113;-64
2022/04/16 08:43:09;;;;;;;1.72;1.62;;;;;;;9.22;62.56;99357.09;1717039;82;21642;-65
2022/04/16 08:45:37;;;;;;;1.50;1.40;;;;;;;9.25;61.91;99359.91;1721545;83;21301;-66
2022/04/16 08:48:05;;;;;;;1.60;1.50;;;;;;;9.26;61.78;99364.20;1719929;82;21654;-64
2022/04/16 08:50:34;;;;;;;2.45;2.20;;;;;;;9.39;61.58;99360.56;1718793;82;21419;-65
2022/04/16 08:53:00;;;;;;;2.50;2.30;;;;;;;9.43;61.11;99363.73;1722399;82;20939;-64
2022/04/16 08:55:29;;;;;;;1.75;1.65;;;;;;;9.44;61.03;99368.86;1712315;83;21158;-64
2022/04/16 08:57:57;;;;;;;2.08;1.65;;;;;;;9.43;61.10;99368.55;1719047;83;21262;-65
2022/04/16 09:00:23;;;;;;;2.22;1.90;;;;;;;9.47;61.26;99373.01;1718794;83;21001;-64
2022/04/16 09:02:56;;;;;;;1.92;1.82;;;;;;;9.55;61.04;99373.02;1722470;83;20935;-64
2022/04/16 09:05:27;;;;;;;2.02;1.92;;;;;;;9.47;60.97;99374.34;1722830;82;20942;-63
2022/04/16 09:07:57;;;;;;;2.37;2.17;;;;;;;9.57;61.16;99370.52;1719474;83;20927;-64
2022/04/16 09:10:28;;;;;;;3.15;2.17;;;;;;;9.61;60.96;99378.50;1719007;83;21874;-65
2022/04/16 09:12:58;;;;;;;2.30;1.75;;;;;;;9.62;60.81;99378.02;1722574;82;20903;-62
2022/04/16 09:15:25;;;;;;;1.65;1.55;;;;;;;9.65;60.29;99382.97;1715531;83;20943;-65
2022/04/16 09:18:06;;;;;;;5.00;1.80;;;;;;;9.69;59.95;99382.98;1714306;82;21485;-66
2022/04/16 09:20:38;;;;;;;1.95;1.85;;;;;;;9.79;59.69;99387.12;1705392;83;20888;-66
2022/04/16 09:23:20;;;;;;;2.60;2.40;;;;;;;9.82;59.62;99393.44;1709848;82;21186;-64
2022/04/16 09:25:50;;;;;;;2.35;2.25;;;;;;;9.85;59.51;99401.05;1714268;82;20979;-63
2022/04/16 09:28:21;;;;;;;2.10;2.00;;;;;;;9.86;59.28;99401.88;1709865;83;20917;-66
2022/04/16 09:30:53;;;;;;;2.50;2.30;;;;;;;9.83;59.20;99398.23;1714416;83;21098;-65
2022/04/16 09:33:20;;;;;;;2.83;2.62;;;;;;;9.78;59.14;99400.06;1713162;83;21524;-66
2022/04/16 09:35:49;;;;;;;4.45;2.55;;;;;;;9.70;59.20;99413.84;1711724;83;21150;-66
2022/04/16 09:38:16;;;;;;;3.25;2.95;;;;;;;9.62;59.36;99410.69;1713732;83;20997;-65
2022/04/16 09:40:47;;;;;;;2.62;2.42;;;;;;;9.58;59.40;99419.16;1713650;83;21051;-65
2022/04/16 09:43:14;;;;;;;3.92;3.62;;;;;;;9.56;59.24;99419.34;1712401;83;21012;-66
2022/04/16 09:45:41;;;;;;;6.03;4.80;;;;;;;9.50;59.41;99424.47;1711444;82;20907;-65
2022/04/16 09:48:12;;;;;;;5.10;4.60;;;;;;;9.43;59.47;99429.62;1714227;83;21256;-64
2022/04/16 09:50:42;;;;;;;6.05;5.45;;;;;;;9.41;59.50;99427.59;1711352;83;20982;-66
2022/04/16 09:53:11;;;;;;;4.90;4.40;;;;;;;9.42;59.48;99434.58;1714116;82;20947;-65
2022/04/16 09:55:38;;;;;;;4.50;4.10;;;;;;;9.45;59.31;99434.26;1713568;83;21554;-65
2022/04/16 09:58:06;;;;;;;4.72;4.20;;;;;;;9.47;59.28;99446.87;1713728;82;20944;-64
2022/04/16 10:00:36;;;;;;;5.15;4.12;;;;;;;9.52;59.06;99445.04;1711417;82;20884;-64
2022/04/16 10:03:07;;;;;;;4.28;3.98;;;;;;;9.52;58.92;99436.58;1714155;82;21450;-67
2022/04/16 10:05:35;;;;;;;7.08;4.03;;;;;;;9.53;58.87;99443.56;1711283;83;20943;-65
2022/04/16 10:08:03;;;;;;;3.87;3.58;;;;;;;9.56;58.63;99447.72;1713632;82;20943;-64
2022/04/16 10:10:40;;;;;;;3.90;3.60;;;;;;;9.50;58.39;99445.22;1711348;83;21540;-65
2022/04/16 10:13:04;;;;;;;4.25;3.95;;;;;;;9.50;58.23;99443.89;1709590;83;21464;-64
2022/04/16 10:16:00;;;;;;;4.20;3.90;;;;;;;9.47;58.11;99456.16;1720227;83;20923;-65
2022/04/16 10:18:26;;;;;;;4.22;3.92;;;;;;;9.46;58.09;99447.88;1712037;83;20872;-64
2022/04/16 10:20:55;;;;;;;4.25;3.35;;;;;;;9.48;58.20;99453.02;1701095;83;20987;-64
2022/04/16 10:23:32;;;;;;;3.80;3.50;;;;;;;9.52;58.05;99452.52;1721604;83;21034;-64
2022/04/16 10:26:09;;;;;;;4.12;3.83;;;;;;;9.49;57.71;99460.80;1718600;82;21167;-64
2022/04/16 10:28:44;;;;;;;4.20;3.80;;;;;;;9.42;57.53;99455.83;1714162;83;20927;-65
2022/04/16 10:31:29;;;;;;;4.72;4.22;;;;;;;9.39;57.56;99460.13;1717985;82;20954;-65
2022/04/16 10:34:08;;;;;;;4.95;4.55;;;;;;;9.36;57.77;99466.28;1719990;83;21120;-64
2022/04/16 10:36:44;;;;;;;5.12;4.62;;;;;;;9.29;57.94;99474.05;1713411;83;21291;-67
2022/04/16 10:39:24;;;;;;;4.37;4.03;;;;;;;9.31;58.04;99480.02;1717966;82;21241;-65
2022/04/16 10:42:02;;;;;;;4.85;4.37;;;;;;;9.24;58.33;99473.22;1721908;83;20923;-68
2022/04/16 10:44:31;;;;;;;5.58;5.08;;;;;;;9.20;58.33;99475.84;1719083;83;20907;-69
2022/04/16 10:46:59;;;;;;;5.28;4.87;;;;;;;9.14;58.36;99479.16;1722398;82;20911;-68
2022/04/16 10:49:29;;;;;;;4.95;4.55;;;;;;;9.12;58.09;99482.48;1703515;83;21489;-62
2022/04/16 10:51:57;;;;;;;5.05;4.55;;;;;;;9.22;57.86;99484.50;1718942;83;21249;-65
2022/04/16 10:54:34;;;;;;;4.65;4.25;;;;;;;9.27;57.86;99496.79;1719342;83;20947;-65
2022/04/16 10:57:02;;;;;;;4.75;4.35;;;;;;;9.39;57.82;99493.81;1722630;82;20979;-67
2022/04/16 10:59:41;;;;;;;4.97;4.58;;;;;;;9.56;57.36;99490.21;1712785;83;20908;-64
2022/04/16 11:02:21;;;;;;;5.47;4.85;;;;;;;9.65;57.10;99494.52;1718034;83;20891;-65
2022/04/16 11:05:05;;;;;;;4.78;4.33;;;;;;;9.69;56.89;99492.73;1722186;82;21554;-68
2022/04/16 11:07:35;;;;;;;4.45;4.05;;;;;;;9.75;56.25;99499.22;1713273;83;21501;-65
2022/04/16 11:10:04;;;;;;;4.70;4.40;;;;;;;9.80;55.94;99485.74;1717974;82;20939;-64
2022/04/16 11:12:32;;;;;;;4.62;4.22;;;;;;;9.80;55.94;99498.22;1722480;82;20927;-65
2022/04/16 11:15:00;;;;;;;4.50;4.10;;;;;;;9.82;55.54;99493.08;1713198;82;21605;-65
2022/04/16 11:17:27;;;;;;;4.22;3.92;;;;;;;9.73;55.04;99495.86;1669382;84;21158;-65
2022/04/16 11:20:02;;;;;;;4.53;4.15;;;;;;;9.62;54.94;99495.69;1694597;84;20867;-69
2022/04/16 11:22:30;;;;;;;4.40;4.00;;;;;;;9.52;55.22;99498.98;1680981;84;20948;-67
2022/04/16 11:25:00;;;;;;;4.47;4.08;;;;;;;9.49;55.35;99499.83;1693372;84;21008;-67
2022/04/16 11:36:01;;;;;;;5.85;3.92;;;;;;;9.61;55.03;99494.53;1693416;84;21003;-62
2022/04/16 11:38:34;;;;;;;3.77;3.37;;;;;;;9.84;54.83;99500.38;1682496;84;20924;-65
2022/04/16 11:41:05;;;;;;;3.55;3.25;;;;;;;10.08;54.10;99498.72;1692938;84;21003;-64
2022/04/16 11:43:33;;;;;;;4.42;4.12;;;;;;;10.32;53.06;99501.40;1690759;84;21154;-66
2022/04/16 11:46:02;;;;;;;3.83;3.37;;;;;;;10.53;52.22;99505.70;1693206;84;20901;-64
2022/04/16 11:48:31;;;;;;;4.30;3.45;;;;;;;10.73;51.53;99510.95;1680637;84;20999;-66
2022/04/16 11:50:58;;;;;;;4.25;3.87;;;;;;;10.88;51.11;99513.73;1676097;84;20980;-67
2022/04/16 11:53:25;;;;;;;4.20;3.72;;;;;;;10.95;50.50;99510.73;1695117;84;21075;-66
2022/04/16 11:55:53;;;;;;;4.10;3.70;;;;;;;10.91;49.24;99515.56;1693471;84;20861;-67
2022/04/16 11:58:26;;;;;;;3.20;3.00;;;;;;;10.80;49.11;99521.24;1693386;84;21004;-64
2022/04/16 12:00:55;;;;;;;3.50;3.20;;;;;;;10.74;49.27;99522.44;1693425;84;20928;-65
2022/04/16 12:03:39;;;;;;;2.95;2.72;;;;;;;10.69;48.94;99524.78;1695004;84;21484;-66
2022/04/16 12:06:12;;;;;;;3.05;2.80;;;;;;;10.62;48.71;99519.30;1689439;84;20971;-65